sensor_id;sensor_type;location;lat;lon;timestamp;pressure;altitude;pressure_sealevel;temperature;humidity
38452;BME280;24231;52.514;13.438;2022-09-29T00:02:11;99518.88;;;11.82;61.48
38452;BME280;24231;52.514;13.438;2022-09-29T00:04:38;99520.99;;;11.36;62.24
38452;BME280;24231;52.514;13.438;2022-09-29T00:07:05;99523.38;;;12.57;58.46
38452;BME280;24231;52.514;13.438;2022-09-29T00:09:32;99524.99;;;12.66;57.85
38452;BME280;24231;52.514;13.438;2022-09-29T00:12:00;99523.65;;;12.08;60.01
38452;BME280;24231;52.514;13.438;2022-09-29T00:14:27;99523.49;;;11.99;60.51
38452;BME280;24231;52.514;13.438;2022-09-29T00:16:54;99522.68;;;11.54;61.27
38452;BME280;24231;52.514;13.438;2022-09-29T00:19:22;99524.22;;;10.42;64.67
38452;BME280;24231;52.514;13.438;2022-09-29T00:21:49;99523.06;;;12.43;58.82
38452;BME280;24231;52.514;13.438;2022-09-29T00:24:16;99521.52;;;13.44;56.14
38452;BME280;24231;52.514;13.438;2022-09-29T00:26:43;99522.50;;;13.21;56.09
38452;BME280;24231;52.514;13.438;2022-09-29T00:29:11;99526.70;;;12.16;57.85
38452;BME280;24231;52.514;13.438;2022-09-29T00:31:38;99525.90;;;12.53;57.58
38452;BME280;24231;52.514;13.438;2022-09-29T00:34:05;99523.57;;;11.81;59.04
38452;BME280;24231;52.514;13.438;2022-09-29T00:36:33;99520.54;;;11.74;59.90
38452;BME280;24231;52.514;13.438;2022-09-29T00:39:00;99518.01;;;12.53;57.99
38452;BME280;24231;52.514;13.438;2022-09-29T00:41:30;99518.63;;;12.27;58.44
38452;BME280;24231;52.514;13.438;2022-09-29T00:43:59;99518.24;;;12.47;57.15
38452;BME280;24231;52.514;13.438;2022-09-29T00:46:33;99518.78;;;12.15;58.56
38452;BME280;24231;52.514;13.438;2022-09-29T00:49:08;99518.83;;;11.91;58.94
38452;BME280;24231;52.514;13.438;2022-09-29T00:51:38;99520.68;;;12.09;58.78
38452;BME280;24231;52.514;13.438;2022-09-29T00:54:07;99516.45;;;11.18;61.07
38452;BME280;24231;52.514;13.438;2022-09-29T00:56:37;99518.38;;;11.96;59.52
38452;BME280;24231;52.514;13.438;2022-09-29T00:59:10;99520.16;;;10.09;65.21
38452;BME280;24231;52.514;13.438;2022-09-29T01:01:40;99517.20;;;12.18;58.40
38452;BME280;24231;52.514;13.438;2022-09-29T01:04:10;99516.46;;;12.90;56.33
38452;BME280;24231;52.514;13.438;2022-09-29T01:06:43;99516.49;;;12.93;56.17
38452;BME280;24231;52.514;13.438;2022-09-29T01:09:14;99520.16;;;13.12;55.59
38452;BME280;24231;52.514;13.438;2022-09-29T01:11:44;99518.09;;;13.71;53.93
38452;BME280;24231;52.514;13.438;2022-09-29T01:14:11;99520.42;;;13.93;53.16
38452;BME280;24231;52.514;13.438;2022-09-29T01:16:39;99521.18;;;13.79;53.26
38452;BME280;24231;52.514;13.438;2022-09-29T01:19:10;99522.63;;;13.36;54.20
38452;BME280;24231;52.514;13.438;2022-09-29T01:21:47;99526.55;;;13.32;54.27
38452;BME280;24231;52.514;13.438;2022-09-29T01:24:47;99528.04;;;13.40;53.91
38452;BME280;24231;52.514;13.438;2022-09-29T01:27:38;99531.92;;;13.35;53.96
38452;BME280;24231;52.514;13.438;2022-09-29T01:30:13;99534.38;;;13.78;52.69
38452;BME280;24231;52.514;13.438;2022-09-29T01:33:04;99542.05;;;13.18;54.48
38452;BME280;24231;52.514;13.438;2022-09-29T01:35:42;99546.84;;;13.00;54.78
38452;BME280;24231;52.514;13.438;2022-09-29T01:38:26;99552.65;;;12.81;55.39
38452;BME280;24231;52.514;13.438;2022-09-29T01:41:04;99554.18;;;12.77;55.41
38452;BME280;24231;52.514;13.438;2022-09-29T01:43:37;99550.58;;;13.45;53.69
38452;BME280;24231;52.514;13.438;2022-09-29T01:46:10;99552.73;;;13.28;54.14
38452;BME280;24231;52.514;13.438;2022-09-29T01:48:42;99553.88;;;13.41;53.80
38452;BME280;24231;52.514;13.438;2022-09-29T01:51:14;99558.44;;;12.40;57.03
38452;BME280;24231;52.514;13.438;2022-09-29T01:53:46;99559.71;;;12.49;56.63
38452;BME280;24231;52.514;13.438;2022-09-29T01:56:23;99560.26;;;10.92;61.31
38452;BME280;24231;52.514;13.438;2022-09-29T01:58:55;99562.20;;;9.85;63.88
38452;BME280;24231;52.514;13.438;2022-09-29T02:01:27;99559.04;;;10.67;61.65
38452;BME280;24231;52.514;13.438;2022-09-29T02:04:01;99560.90;;;12.36;57.41
38452;BME280;24231;52.514;13.438;2022-09-29T02:06:31;99566.02;;;12.98;55.72
38452;BME280;24231;52.514;13.438;2022-09-29T02:09:03;99569.08;;;12.04;57.82
38452;BME280;24231;52.514;13.438;2022-09-29T02:11:37;99572.59;;;12.31;57.72
38452;BME280;24231;52.514;13.438;2022-09-29T02:14:11;99571.42;;;12.14;57.57
38452;BME280;24231;52.514;13.438;2022-09-29T23:03:02;100343.72;;;8.88;69.10
38452;BME280;24231;52.514;13.438;2022-09-29T23:05:30;100350.20;;;9.17;67.95
38452;BME280;24231;52.514;13.438;2022-09-29T23:07:58;100350.23;;;8.97;67.88
38452;BME280;24231;52.514;13.438;2022-09-29T23:10:25;100355.77;;;9.16;68.04
38452;BME280;24231;52.514;13.438;2022-09-29T23:12:52;100356.06;;;8.25;71.56
38452;BME280;24231;52.514;13.438;2022-09-29T23:15:20;100358.78;;;8.77;70.46
38452;BME280;24231;52.514;13.438;2022-09-29T23:17:47;100358.56;;;9.28;67.74
38452;BME280;24231;52.514;13.438;2022-09-29T23:20:15;100354.39;;;9.95;65.78
38452;BME280;24231;52.514;13.438;2022-09-29T23:22:42;100353.41;;;11.96;58.48
38452;BME280;24231;52.514;13.438;2022-09-29T23:25:09;100355.12;;;11.84;58.72
38452;BME280;24231;52.514;13.438;2022-09-29T23:27:36;100356.84;;;12.56;56.00
38452;BME280;24231;52.514;13.438;2022-09-29T23:30:04;100358.31;;;9.96;63.65
38452;BME280;24231;52.514;13.438;2022-09-29T23:32:30;100360.96;;;10.38;63.80
38452;BME280;24231;52.514;13.438;2022-09-29T23:34:58;100364.65;;;9.87;64.14
38452;BME280;24231;52.514;13.438;2022-09-29T23:37:25;100361.01;;;9.98;63.49
38452;BME280;24231;52.514;13.438;2022-09-29T23:39:52;100361.62;;;10.17;64.16
38452;BME280;24231;52.514;13.438;2022-09-29T23:42:18;100361.08;;;10.28;63.67
38452;BME280;24231;52.514;13.438;2022-09-29T23:44:46;100362.83;;;10.01;64.19
38452;BME280;24231;52.514;13.438;2022-09-29T23:47:13;100362.21;;;10.80;61.23
38452;BME280;24231;52.514;13.438;2022-09-29T23:49:39;100358.18;;;12.66;55.38
38452;BME280;24231;52.514;13.438;2022-09-29T23:52:07;100360.32;;;12.58;55.14
38452;BME280;24231;52.514;13.438;2022-09-29T23:54:34;100371.68;;;9.37;65.36
38452;BME280;24231;52.514;13.438;2022-09-29T23:57:01;100372.06;;;9.48;65.69
38452;BME280;24231;52.514;13.438;2022-09-29T23:59:28;100372.15;;;8.58;68.57
